Time;durP1;ratioP1;P1;durP2;ratioP2;P2;SDS_P1;SDS_P2;PMS_P1;PMS_P2;Temp;Humidity;BMP_temperature;BMP_pressure;BME280_temperature;BME280_humidity;BME280_pressure;Samples;Min_cycle;Max_cycle;Signal;HPM_P1;HPM_P2
2023/01/25 00:02:14;;;;;;;16.83;11.87;;;;;;;2.47;100.00;101008.56;6218897;23;20201;-80
2023/01/25 00:04:41;;;;;;;15.27;11.90;;;;;;;2.63;100.00;101010.69;6245907;23;20204;-80
2023/01/25 00:07:08;;;;;;;15.90;12.53;;;;;;;2.53;100.00;101004.53;6245565;23;20296;-81
2023/01/25 00:09:34;;;;;;;15.67;11.70;;;;;;;2.56;100.00;101006.94;6245853;23;20215;-81
2023/01/25 00:12:01;;;;;;;13.60;10.57;;;;;;;2.62;100.00;101011.66;6245271;23;20223;-79
2023/01/25 00:14:28;;;;;;;17.43;11.70;;;;;;;2.76;100.00;101006.00;6245772;23;20546;-79
2023/01/25 00:16:54;;;;;;;14.70;10.80;;;;;;;2.65;100.00;101006.13;6245899;23;20220;-80
2023/01/25 00:19:22;;;;;;;15.33;10.60;;;;;;;2.63;100.00;101008.91;6245986;23;20231;-80
2023/01/25 00:21:49;;;;;;;14.10;10.27;;;;;;;2.76;100.00;101011.28;6246258;23;20215;-78
2023/01/25 00:24:16;;;;;;;13.40;9.97;;;;;;;2.71;100.00;101013.50;6245572;23;20228;-77
2023/01/25 00:26:43;;;;;;;13.60;10.63;;;;;;;2.60;100.00;101014.47;6246301;23;20201;-78
2023/01/25 00:29:12;;;;;;;15.10;11.13;;;;;;;2.55;100.00;101015.84;6219885;23;20291;-78
2023/01/25 00:31:47;;;;;;;14.33;10.50;;;;;;;2.61;100.00;101015.31;6194332;23;20204;-78
2023/01/25 00:34:23;;;;;;;13.83;10.30;;;;;;;2.46;100.00;101016.66;6218622;23;20209;-80
2023/01/25 00:36:56;;;;;;;13.70;10.33;;;;;;;2.61;100.00;101020.59;6246299;23;20537;-81
2023/01/25 00:39:25;;;;;;;14.27;10.30;;;;;;;2.56;100.00;101022.81;6245606;23;20263;-78
2023/01/25 00:41:51;;;;;;;13.63;10.13;;;;;;;2.60;100.00;101019.75;6193893;23;20236;-78
2023/01/25 00:44:18;;;;;;;12.93;10.07;;;;;;;2.65;100.00;101017.56;6244722;23;20212;-78
2023/01/25 00:46:45;;;;;;;15.10;10.50;;;;;;;2.67;100.00;101012.09;6218950;23;20274;-77
2023/01/25 00:49:20;;;;;;;14.47;10.37;;;;;;;2.65;100.00;101020.19;6245940;23;20271;-77
2023/01/25 00:51:48;;;;;;;12.90;9.73;;;;;;;2.71;100.00;101021.44;6218685;23;20283;-77
2023/01/25 00:54:16;;;;;;;15.13;10.50;;;;;;;2.55;100.00;101021.13;6193446;23;20675;-77
2023/01/25 00:56:44;;;;;;;15.07;10.10;;;;;;;2.64;100.00;101021.16;6218406;23;20240;-78
2023/01/25 00:59:11;;;;;;;13.70;10.03;;;;;;;2.71;100.00;101029.38;6218474;23;20208;-77
2023/01/25 01:01:42;;;;;;;14.63;10.60;;;;;;;2.57;100.00;101033.25;6243936;23;20210;-78
2023/01/25 01:04:09;;;;;;;12.87;9.60;;;;;;;2.67;100.00;101033.28;6237624;23;20204;-79
2023/01/25 01:06:41;;;;;;;12.63;9.87;;;;;;;2.66;100.00;101031.59;6269579;23;20227;-80
2023/01/25 01:09:15;;;;;;;13.53;10.20;;;;;;;2.68;100.00;101034.94;6244115;23;20264;-81
2023/01/25 01:11:42;;;;;;;13.77;9.80;;;;;;;2.63;100.00;101034.50;6201658;23;20260;-79
2023/01/25 01:14:09;;;;;;;14.83;10.40;;;;;;;2.58;100.00;101023.50;6221664;23;20280;-78
2023/01/25 01:16:36;;;;;;;14.87;10.33;;;;;;;2.61;100.00;101031.19;6222184;23;20220;-78
2023/01/25 01:19:03;;;;;;;13.87;9.87;;;;;;;2.49;100.00;101027.78;6248966;23;20223;-78
2023/01/25 01:21:30;;;;;;;13.20;10.37;;;;;;;2.47;100.00;101018.31;6222760;23;20263;-79
2023/01/25 01:23:57;;;;;;;14.97;10.97;;;;;;;2.50;100.00;101012.75;6222914;23;20204;-79
2023/01/25 01:26:24;;;;;;;15.00;10.00;;;;;;;2.57;100.00;101016.53;6222268;23;20212;-81
2023/01/25 01:28:50;;;;;;;13.93;10.13;;;;;;;2.50;100.00;101004.81;6222095;23;20662;-80
2023/01/25 01:31:20;;;;;;;13.10;10.10;;;;;;;2.52;100.00;101011.63;6222983;23;20209;-81
2023/01/25 01:33:57;;;;;;;12.87;10.27;;;;;;;2.58;100.00;101016.41;6222783;23;20208;-79
2023/01/25 01:36:26;;;;;;;12.70;10.30;;;;;;;2.52;100.00;101014.28;6222454;23;20256;-79
2023/01/25 01:38:52;;;;;;;13.53;9.90;;;;;;;2.60;100.00;101010.97;6248393;23;20219;-78
2023/01/25 01:41:19;;;;;;;13.87;10.60;;;;;;;2.57;100.00;101006.78;6222290;23;20238;-79
2023/01/25 01:43:46;;;;;;;13.07;10.20;;;;;;;2.48;100.00;101007.59;6197971;23;20231;-81
2023/01/25 01:46:17;;;;;;;14.77;11.13;;;;;;;2.50;100.00;101007.47;6222445;23;20689;-78
2023/01/25 01:48:46;;;;;;;15.87;10.77;;;;;;;2.54;100.00;101015.00;6249604;23;20225;-78
2023/01/25 01:51:22;;;;;;;13.30;10.37;;;;;;;2.67;100.00;101010.28;6222576;23;20205;-79
2023/01/25 01:53:53;;;;;;;15.63;10.67;;;;;;;2.54;100.00;101007.06;6198107;23;20208;-79
2023/01/25 01:56:26;;;;;;;16.40;11.37;;;;;;;2.52;100.00;101013.47;6222659;23;20598;-79
2023/01/25 01:58:55;;;;;;;14.60;10.67;;;;;;;2.58;100.00;101011.09;6224497;23;20208;-79
2023/01/25 02:01:22;;;;;;;14.13;10.80;;;;;;;2.69;100.00;101009.34;6227402;23;20260;-80
2023/01/25 02:03:49;;;;;;;13.83;10.27;;;;;;;2.54;100.00;101007.06;6229011;23;20201;-79
2023/01/25 02:07:02;;;;;;;13.83;10.23;;;;;;;2.56;100.00;101007.78;6202962;23;20271;-78
2023/01/25 02:09:30;;;;;;;12.87;9.50;;;;;;;2.57;100.00;101009.44;6175867;23;20215;-79
2023/01/25 02:11:58;;;;;;;12.30;9.77;;;;;;;2.51;100.00;101017.91;6224997;23;20204;-79
2023/01/25 02:14:27;;;;;;;13.30;9.90;;;;;;;2.39;100.00;101004.91;6251687;23;20208;-79
2023/01/25 02:16:54;;;;;;;12.60;10.30;;;;;;;2.43;100.00;101008.97;6229046;23;20678;-80
2023/01/25 02:19:42;;;;;;;14.07;10.83;;;;;;;2.46;100.00;100998.97;6246988;23;20210;-81
2023/01/25 02:22:12;;;;;;;14.67;10.53;;;;;;;2.58;100.00;101011.09;6196575;23;20213;-81
2023/01/25 02:24:46;;;;;;;13.33;9.97;;;;;;;2.59;100.00;101015.44;6248353;23;20264;-79
2023/01/25 02:27:14;;;;;;;13.17;10.07;;;;;;;2.67;100.00;101018.22;6255643;23;20209;-80
2023/01/25 02:29:40;;;;;;;13.70;10.43;;;;;;;2.65;100.00;101006.13;6181641;23;20303;-79
2023/01/25 02:32:07;;;;;;;11.80;9.30;;;;;;;2.58;100.00;101013.75;6257440;23;20511;-79
2023/01/25 02:34:35;;;;;;;15.00;10.07;;;;;;;2.56;100.00;101009.59;6231405;23;20518;-79
2023/01/25 02:37:02;;;;;;;16.43;11.07;;;;;;;2.53;100.00;101008.03;6231205;23;20231;-79
2023/01/25 02:39:29;;;;;;;13.67;10.00;;;;;;;2.61;100.00;101007.38;6257704;23;20287;-80
2023/01/25 02:41:56;;;;;;;13.70;10.80;;;;;;;2.48;100.00;100994.38;6206770;23;20192;-79
2023/01/25 02:44:30;;;;;;;13.53;10.70;;;;;;;2.57;100.00;101000.66;6229616;23;20223;-80
2023/01/25 02:47:02;;;;;;;15.77;10.87;;;;;;;2.56;100.00;100991.06;6231652;23;20291;-79
2023/01/25 02:49:28;;;;;;;13.73;10.73;;;;;;;2.46;100.00;100992.84;6200226;23;20204;-79
2023/01/25 02:51:56;;;;;;;14.83;10.80;;;;;;;2.53;100.00;100983.38;6223917;23;20653;-79
2023/01/25 02:54:25;;;;;;;13.33;10.03;;;;;;;2.42;100.00;100983.50;6224038;23;20275;-79
2023/01/25 02:56:52;;;;;;;14.80;11.50;;;;;;;2.43;100.00;100979.84;6225284;23;20374;-79
2023/01/25 02:59:21;;;;;;;15.17;10.67;;;;;;;2.38;100.00;100979.44;6225018;23;20208;-79
2023/01/25 03:01:51;;;;;;;14.97;11.23;;;;;;;2.38;100.00;100966.22;6223926;23;20236;-79
2023/01/25 03:04:18;;;;;;;13.97;10.47;;;;;;;2.51;100.00;100962.38;6247575;23;20221;-78
2023/01/25 03:06:46;;;;;;;14.33;11.00;;;;;;;2.47;100.00;100966.22;6220372;23;20709;-78
2023/01/25 03:09:13;;;;;;;13.57;11.37;;;;;;;2.47;100.00;100965.41;6246559;23;20215;-79
2023/01/25 03:11:43;;;;;;;13.73;10.83;;;;;;;2.36;100.00;100961.06;6220912;23;20209;-78
2023/01/25 03:14:10;;;;;;;16.43;11.17;;;;;;;2.36;100.00;100954.94;6220403;23;20215;-78
2023/01/25 03:16:37;;;;;;;15.17;11.57;;;;;;;2.41;100.00;100958.00;6219943;23;20209;-78
2023/01/25 03:19:05;;;;;;;16.27;11.03;;;;;;;2.40;100.00;100956.34;6220526;23;20661;-78
2023/01/25 03:21:31;;;;;;;14.60;11.77;;;;;;;2.35;100.00;100959.38;6221710;23;20255;-78
2023/01/25 03:24:00;;;;;;;16.47;11.47;;;;;;;2.35;100.00;100954.09;6246775;23;20284;-78
2023/01/25 03:27:09;;;;;;;17.60;11.07;;;;;;;2.27;100.00;100943.34;6219263;23;20215;-78
2023/01/25 03:29:25;;;;;;;16.63;12.30;;;;;;;2.30;100.00;100943.06;6219291;23;20208;-78
2023/01/25 03:31:52;;;;;;;13.43;10.80;;;;;;;2.42;100.00;100931.44;6219829;23;20212;-78
2023/01/25 03:34:19;;;;;;;14.73;11.57;;;;;;;2.43;100.00;100932.25;6246117;23;20213;-78
2023/01/25 03:36:45;;;;;;;15.33;11.37;;;;;;;2.30;100.00;100927.22;6246487;23;20222;-78
2023/01/25 03:39:13;;;;;;;15.87;11.63;;;;;;;2.42;100.00;100930.59;6219092;23;20200;-78
2023/01/25 03:41:42;;;;;;;17.33;11.63;;;;;;;2.41;100.00;100931.56;6219343;23;20209;-77
2023/01/25 03:44:10;;;;;;;14.93;11.27;;;;;;;2.44;100.00;100926.81;6218641;23;20209;-78
2023/01/25 03:46:39;;;;;;;14.90;11.03;;;;;;;2.52;100.00;100920.88;6244719;23;20231;-78
2023/01/25 03:49:06;;;;;;;15.50;11.30;;;;;;;2.44;100.00;100926.81;6247338;23;20209;-78
2023/01/25 03:51:33;;;;;;;15.27;11.00;;;;;;;2.42;100.00;100928.78;6247161;23;20204;-78
2023/01/25 03:54:01;;;;;;;16.03;12.20;;;;;;;2.28;100.00;100923.88;6219616;23;20209;-77
2023/01/25 03:56:27;;;;;;;16.90;12.23;;;;;;;2.22;100.00;100916.47;6246665;23;20608;-78
2023/01/25 03:59:04;;;;;;;16.90;11.93;;;;;;;2.34;100.00;100914.53;6219386;23;20690;-78
2023/01/25 04:01:31;;;;;;;16.80;11.83;;;;;;;2.36;100.00;100915.25;6219110;23;20216;-77
2023/01/25 04:03:58;;;;;;;17.20;12.03;;;;;;;2.33;100.00;100910.25;6218953;23;20243;-77
2023/01/25 04:06:26;;;;;;;14.77;11.33;;;;;;;2.30;100.00;100908.69;6218770;23;20197;-77
2023/01/25 04:08:53;;;;;;;16.73;12.83;;;;;;;2.24;100.00;100917.16;6245922;23;20185;-78
2023/01/25 04:11:22;;;;;;;16.63;11.80;;;;;;;2.36;100.00;100908.16;6218444;23;20208;-77
2023/01/25 04:13:48;;;;;;;16.23;12.33;;;;;;;2.33;100.00;100918.19;6245271;23;20215;-77
2023/01/25 04:16:16;;;;;;;15.20;11.07;;;;;;;2.46;100.00;100909.03;6193461;23;20209;-77
2023/01/25 04:18:57;;;;;;;18.17;11.80;;;;;;;2.42;100.00;100915.56;6243812;23;20204;-78
2023/01/25 04:21:25;;;;;;;15.17;11.67;;;;;;;2.28;100.00;100915.94;6243640;23;20243;-77
2023/01/25 04:23:52;;;;;;;16.83;13.37;;;;;;;2.29;100.00;100916.78;6245079;23;20201;-76
2023/01/25 04:26:18;;;;;;;17.13;13.20;;;;;;;2.40;100.00;100914.84;6244131;23;20552;-77
2023/01/25 04:28:51;;;;;;;16.63;12.03;;;;;;;2.33;100.00;100911.09;6223368;23;20200;-78
2023/01/25 04:31:18;;;;;;;16.07;12.00;;;;;;;2.35;100.00;100918.88;6245560;23;20209;-77
2023/01/25 04:33:45;;;;;;;16.90;11.87;;;;;;;2.26;100.00;100906.47;6218415;23;20216;-78
2023/01/25 04:36:15;;;;;;;14.77;11.33;;;;;;;2.34;100.00;100914.53;6218257;23;20200;-77
2023/01/25 04:38:43;;;;;;;18.93;15.00;;;;;;;2.29;100.00;100914.16;6218614;23;20205;-78
2023/01/25 04:41:10;;;;;;;18.23;12.57;;;;;;;2.36;100.00;100917.91;6218432;23;20215;-77
2023/01/25 04:43:37;;;;;;;17.13;12.10;;;;;;;2.49;100.00;100921.97;6218599;23;20215;-77
2023/01/25 04:46:08;;;;;;;17.37;13.73;;;;;;;2.41;100.00;100916.53;6218405;23;20201;-78
2023/01/25 04:48:35;;;;;;;17.43;12.97;;;;;;;2.34;100.00;100919.84;6193784;23;20212;-77
2023/01/25 04:51:04;;;;;;;17.50;12.33;;;;;;;2.43;100.00;100913.72;6243778;23;20765;-77
2023/01/25 04:53:32;;;;;;;17.33;12.13;;;;;;;2.34;100.00;100907.44;6219268;23;20213;-77
2023/01/25 04:56:01;;;;;;;15.97;12.03;;;;;;;2.39;100.00;100913.16;6218612;23;20592;-77
2023/01/25 04:58:32;;;;;;;16.67;12.77;;;;;;;2.36;100.00;100910.81;6218286;23;20211;-77
2023/01/25 05:01:01;;;;;;;16.60;12.43;;;;;;;2.39;100.00;100915.81;6218297;23;20208;-77
2023/01/25 05:03:28;;;;;;;19.43;12.70;;;;;;;2.44;100.00;100912.75;6218700;23;20212;-77
2023/01/25 05:05:55;;;;;;;16.27;12.90;;;;;;;2.27;100.00;100906.34;6218416;23;20209;-78
2023/01/25 05:08:25;;;;;;;17.90;12.50;;;;;;;2.40;100.00;100903.44;6218158;23;20219;-76
2023/01/25 05:10:54;;;;;;;19.03;13.57;;;;;;;2.42;100.00;100909.44;6218070;23;20205;-77
2023/01/25 05:13:31;;;;;;;18.87;12.93;;;;;;;2.36;100.00;100905.53;6243473;23;20205;-78
2023/01/25 05:16:18;;;;;;;20.43;15.37;;;;;;;2.38;100.00;100902.75;6243921;23;20280;-78
2023/01/25 05:18:46;;;;;;;18.53;13.43;;;;;;;2.36;100.00;100902.03;6243534;23;20212;-78
2023/01/25 05:24:12;;;;;;;20.00;13.97;;;;;;;2.32;100.00;100898.84;6217867;23;20205;-78
2023/01/25 05:29:27;;;;;;;18.50;13.30;;;;;;;2.34;100.00;100896.03;6218308;23;20205;-78
2023/01/25 05:32:12;;;;;;;21.80;14.03;;;;;;;2.33;100.00;100895.22;6219972;23;20204;-77
2023/01/25 05:34:39;;;;;;;18.30;13.20;;;;;;;2.24;100.00;100898.66;6218332;23;20208;-78
2023/01/25 05:37:07;;;;;;;18.57;12.23;;;;;;;2.14;100.00;100895.16;6217913;23;20209;-78
2023/01/25 05:39:38;;;;;;;20.40;14.20;;;;;;;2.28;100.00;100893.94;6218155;23;20224;-78
2023/01/25 05:42:10;;;;;;;19.10;13.50;;;;;;;2.33;100.00;100897.03;6244653;23;20550;-77
2023/01/25 05:44:38;;;;;;;18.27;13.43;;;;;;;2.30;100.00;100899.91;6193347;23;20287;-78
2023/01/25 05:47:05;;;;;;;20.57;13.97;;;;;;;2.32;100.00;100903.28;6218000;23;20583;-78
2023/01/25 05:49:32;;;;;;;19.67;15.53;;;;;;;2.23;100.00;100902.28;6217909;22;20227;-78
2023/01/25 05:51:59;;;;;;;19.03;13.63;;;;;;;2.36;100.00;100902.88;6243246;23;20204;-78
2023/01/25 05:54:26;;;;;;;20.67;15.30;;;;;;;2.33;100.00;100903.16;6244232;23;20235;-78
2023/01/25 05:57:00;;;;;;;19.93;15.00;;;;;;;2.20;100.00;100895.44;6218415;23;20208;-78
2023/01/25 05:59:26;;;;;;;21.00;15.10;;;;;;;2.30;100.00;100902.56;6244713;23;20208;-78
2023/01/25 06:01:53;;;;;;;20.47;15.47;;;;;;;2.34;100.00;100902.16;6217823;23;20232;-78
2023/01/25 06:04:21;;;;;;;20.73;15.47;;;;;;;2.29;100.00;100903.56;6217674;23;20208;-78
2023/01/25 06:06:47;;;;;;;21.03;15.37;;;;;;;2.30;100.00;100910.50;6217877;23;20200;-78
2023/01/25 06:09:14;;;;;;;18.03;12.60;;;;;;;2.28;100.00;100908.00;6243271;23;20553;-78
2023/01/25 06:11:44;;;;;;;18.30;13.27;;;;;;;2.35;100.00;100911.78;6243163;23;20216;-78
2023/01/25 06:14:10;;;;;;;18.07;13.03;;;;;;;2.29;100.00;100912.31;6192286;23;20283;-78
2023/01/25 06:16:37;;;;;;;17.73;13.17;;;;;;;2.38;100.00;100911.50;6192849;23;20213;-78
2023/01/25 06:19:23;;;;;;;19.60;14.03;;;;;;;2.37;100.00;100914.28;6246544;23;20209;-77
2023/01/25 06:22:14;;;;;;;21.50;15.80;;;;;;;2.31;100.00;100915.66;6232314;23;20209;-79
2023/01/25 06:24:40;;;;;;;27.50;20.57;;;;;;;2.25;100.00;100918.00;6244488;23;20209;-79
2023/01/25 06:27:07;;;;;;;19.90;15.43;;;;;;;2.28;100.00;100918.59;6244302;23;20205;-78
2023/01/25 06:29:34;;;;;;;22.53;14.70;;;;;;;2.29;100.00;100927.38;6244279;23;20592;-78
2023/01/25 06:32:00;;;;;;;22.90;14.37;;;;;;;2.17;100.00;100919.53;6249073;23;20532;-78
2023/01/25 06:34:27;;;;;;;20.63;14.83;;;;;;;2.15;100.00;100918.81;6250671;23;20634;-79
2023/01/25 06:36:54;;;;;;;21.07;14.97;;;;;;;2.17;100.00;100918.69;6247200;23;20212;-78
2023/01/25 06:39:21;;;;;;;22.83;14.37;;;;;;;2.20;100.00;100928.97;6250152;23;20232;-80
2023/01/25 06:41:47;;;;;;;21.00;15.73;;;;;;;2.26;100.00;100931.09;6250116;23;20204;-79
2023/01/25 06:49:58;;;;;;;23.90;17.37;;;;;;;2.27;100.00;100916.06;6191440;23;20202;-79
2023/01/25 06:52:24;;;;;;;19.33;14.67;;;;;;;2.29;100.00;100909.66;6188745;23;20198;-79
2023/01/25 06:54:51;;;;;;;23.10;15.67;;;;;;;2.42;100.00;100909.44;6188735;23;20298;-80
2023/01/25 06:57:18;;;;;;;24.50;17.87;;;;;;;2.34;100.00;100893.38;6189868;23;20274;-80
2023/01/25 06:59:44;;;;;;;22.87;16.40;;;;;;;2.34;100.00;100915.38;6165432;23;20282;-79
2023/01/25 07:02:15;;;;;;;20.60;15.73;;;;;;;2.41;100.00;100913.03;6139652;23;20214;-80
2023/01/25 07:04:41;;;;;;;23.40;16.27;;;;;;;2.39;100.00;100909.69;6164004;23;20233;-79
2023/01/25 07:07:08;;;;;;;19.73;15.23;;;;;;;2.41;100.00;100910.41;6164919;23;20217;-79
2023/01/25 07:09:35;;;;;;;22.90;16.27;;;;;;;2.35;100.00;100905.66;6167314;23;20209;-79
2023/01/25 07:12:05;;;;;;;21.10;15.10;;;;;;;2.40;100.00;100904.28;6167114;23;20220;-79
2023/01/25 07:14:32;;;;;;;21.30;15.60;;;;;;;2.44;100.00;100904.81;6192304;23;20213;-79
2023/01/25 07:16:58;;;;;;;22.30;16.63;;;;;;;2.43;100.00;100909.28;6166470;23;20206;-80
2023/01/25 07:19:28;;;;;;;21.73;16.27;;;;;;;2.41;100.00;100902.47;6143842;23;20233;-80
2023/01/25 07:21:55;;;;;;;21.53;13.97;;;;;;;2.51;100.00;100900.69;6189396;23;20341;-79
2023/01/25 07:24:25;;;;;;;20.23;13.70;;;;;;;2.69;100.00;100903.47;6187573;23;20715;-78
2023/01/25 07:26:52;;;;;;;19.27;13.70;;;;;;;2.60;100.00;100902.50;6187682;23;20216;-78
2023/01/25 07:29:20;;;;;;;21.60;14.50;;;;;;;2.35;100.00;100893.25;6186057;23;20216;-79
2023/01/25 07:31:47;;;;;;;21.37;14.57;;;;;;;2.52;100.00;100891.78;6187456;23;20264;-79
2023/01/25 07:34:14;;;;;;;19.17;13.93;;;;;;;2.53;100.00;100888.97;6187174;23;20272;-78
2023/01/25 07:36:42;;;;;;;18.97;14.80;;;;;;;2.44;100.00;100891.59;6185949;23;20575;-79
2023/01/25 07:39:10;;;;;;;18.33;13.77;;;;;;;2.44;100.00;100892.44;6137370;23;20216;-79
2023/01/25 07:41:37;;;;;;;21.07;14.67;;;;;;;2.45;100.00;100891.47;6186652;23;20221;-79
2023/01/25 07:44:04;;;;;;;19.30;14.13;;;;;;;2.47;100.00;100894.00;6160987;23;20212;-78
2023/01/25 07:46:37;;;;;;;20.70;14.97;;;;;;;2.54;100.00;100895.09;6161457;23;20280;-79
2023/01/25 07:49:04;;;;;;;19.90;14.80;;;;;;;2.57;100.00;100894.81;6172568;23;20202;-78
2023/01/25 07:51:30;;;;;;;21.77;15.13;;;;;;;2.60;100.00;100900.69;6187248;23;20285;-80
2023/01/25 07:53:59;;;;;;;20.83;14.97;;;;;;;2.61;100.00;100901.53;6161414;23;20226;-79
2023/01/25 07:56:29;;;;;;;18.87;13.87;;;;;;;2.63;100.00;100896.91;6161163;23;20217;-79
2023/01/25 07:58:56;;;;;;;21.10;15.13;;;;;;;2.57;100.00;100902.75;6162413;23;20628;-79
2023/01/25 08:01:25;;;;;;;21.03;14.00;;;;;;;2.55;100.00;100896.78;6190446;23;20553;-80
2023/01/25 08:03:55;;;;;;;19.10;14.40;;;;;;;2.63;100.00;100894.28;6164600;23;20202;-79
2023/01/25 08:06:26;;;;;;;19.27;13.40;;;;;;;2.78;100.00;100892.06;6188393;23;20260;-78
2023/01/25 08:08:54;;;;;;;19.30;14.13;;;;;;;2.88;100.00;100899.03;6162994;23;20289;-78
2023/01/25 08:11:23;;;;;;;16.37;12.30;;;;;;;3.02;100.00;100895.13;6188199;23;20220;-79
2023/01/25 08:13:50;;;;;;;19.87;13.60;;;;;;;2.65;100.00;100890.53;6161468;23;20209;-79
2023/01/25 08:16:22;;;;;;;18.30;13.47;;;;;;;2.79;100.00;100896.38;6143917;23;20206;-79
2023/01/25 08:18:50;;;;;;;23.13;19.10;;;;;;;2.77;100.00;100896.50;6173051;23;20210;-80
2023/01/25 08:21:17;;;;;;;18.77;14.47;;;;;;;2.93;100.00;100902.09;6189315;23;20233;-79
2023/01/25 08:23:44;;;;;;;17.33;12.23;;;;;;;3.02;100.00;100900.41;6185971;23;20210;-79
2023/01/25 08:26:12;;;;;;;17.63;12.20;;;;;;;2.88;100.00;100892.91;6185348;23;20212;-77
2023/01/25 08:28:39;;;;;;;17.30;12.60;;;;;;;2.89;100.00;100897.22;6185940;23;20210;-79
2023/01/25 08:31:06;;;;;;;17.40;12.37;;;;;;;2.96;100.00;100890.38;6185848;23;20277;-79
2023/01/25 08:33:33;;;;;;;18.27;13.37;;;;;;;2.92;100.00;100886.34;6185741;23;20210;-79
2023/01/25 08:35:59;;;;;;;17.90;12.63;;;;;;;2.88;100.00;100890.25;6186644;23;20214;-79
2023/01/25 08:38:26;;;;;;;16.67;12.83;;;;;;;3.00;100.00;100875.88;6185272;23;20651;-79
2023/01/25 08:40:53;;;;;;;20.07;14.30;;;;;;;2.94;100.00;100885.22;6186004;23;20206;-79
2023/01/25 08:43:20;;;;;;;19.10;13.43;;;;;;;3.05;100.00;100879.78;6185717;23;20671;-79
2023/01/25 08:45:55;;;;;;;15.80;12.17;;;;;;;3.12;100.00;100879.22;6186898;23;20535;-82
2023/01/25 08:48:22;;;;;;;19.13;12.53;;;;;;;3.04;100.00;100878.09;6184897;23;20206;-79
2023/01/25 08:50:48;;;;;;;18.10;12.40;;;;;;;2.97;100.00;100877.00;6185988;23;20237;-79
2023/01/25 08:53:15;;;;;;;17.03;12.20;;;;;;;2.96;100.00;100870.03;6185846;23;20232;-79
2023/01/25 08:55:42;;;;;;;16.87;11.50;;;;;;;2.97;100.00;100873.53;6185782;23;20277;-79
2023/01/25 08:58:12;;;;;;;18.83;12.60;;;;;;;2.94;100.00;100876.47;6184686;23;20261;-79
2023/01/25 09:00:39;;;;;;;16.27;12.40;;;;;;;3.07;100.00;100869.06;6159682;23;20546;-78
2023/01/25 09:03:07;;;;;;;17.80;12.00;;;;;;;3.13;100.00;100871.13;6185340;23;20234;-80
2023/01/25 09:05:34;;;;;;;17.63;12.40;;;;;;;3.05;100.00;100866.53;6185653;23;20659;-78
2023/01/25 09:08:01;;;;;;;17.70;12.37;;;;;;;3.08;100.00;100860.97;6185364;23;20557;-78
2023/01/25 09:10:28;;;;;;;16.77;12.77;;;;;;;3.17;100.00;100874.34;6186116;23;20296;-78
2023/01/25 09:12:55;;;;;;;17.10;12.80;;;;;;;3.22;100.00;100864.97;6185585;23;20214;-79
2023/01/25 09:15:21;;;;;;;17.80;12.70;;;;;;;3.30;100.00;100866.94;6185826;23;20206;-78
2023/01/25 09:17:55;;;;;;;17.70;13.00;;;;;;;3.37;100.00;100873.31;6185875;23;20213;-79
2023/01/25 09:20:22;;;;;;;14.90;11.90;;;;;;;3.38;100.00;100869.69;6185413;23;20222;-79
2023/01/25 09:22:49;;;;;;;17.07;12.27;;;;;;;3.41;100.00;100869.41;6159781;23;20206;-79
2023/01/25 09:25:16;;;;;;;16.23;12.10;;;;;;;3.42;100.00;100869.25;6185560;23;20206;-79
2023/01/25 09:27:42;;;;;;;18.07;12.27;;;;;;;3.40;100.00;100863.28;6186178;23;20228;-78
2023/01/25 09:30:10;;;;;;;15.90;11.70;;;;;;;3.43;100.00;100856.84;6185153;23;20217;-79
2023/01/25 09:32:50;;;;;;;15.27;11.73;;;;;;;3.43;100.00;100857.69;6159617;23;20209;-79
2023/01/25 09:35:16;;;;;;;13.90;10.47;;;;;;;3.53;100.00;100852.38;6185485;23;20210;-79
2023/01/25 09:37:43;;;;;;;13.83;10.57;;;;;;;3.63;100.00;100844.38;6186074;23;20206;-78
2023/01/25 09:40:20;;;;;;;13.00;10.37;;;;;;;3.69;100.00;100839.31;6184683;23;20573;-79
2023/01/25 09:42:53;;;;;;;13.07;10.30;;;;;;;3.75;100.00;100840.56;6185908;23;20206;-79
2023/01/25 09:45:35;;;;;;;15.77;10.80;;;;;;;3.70;100.00;100838.34;6185376;23;20210;-79
2023/01/25 09:48:02;;;;;;;14.37;9.93;;;;;;;3.79;100.00;100841.91;6185066;23;20561;-78
2023/01/25 09:50:33;;;;;;;13.07;10.20;;;;;;;3.79;100.00;100833.97;6185199;23;20206;-79
2023/01/25 09:53:23;;;;;;;12.97;10.03;;;;;;;3.74;100.00;100838.88;6135539;23;20210;-78
2023/01/25 09:55:57;;;;;;;13.53;10.37;;;;;;;3.74;100.00;100831.75;6159534;23;20218;-79
2023/01/25 09:58:31;;;;;;;14.53;11.03;;;;;;;3.73;100.00;100832.75;6159402;23;20255;-79
2023/01/25 10:01:06;;;;;;;13.57;10.37;;;;;;;3.68;100.00;100815.63;6159410;23;20206;-79
2023/01/25 10:04:01;;;;;;;13.07;9.87;;;;;;;3.71;100.00;100810.84;6185461;23;20228;-77
2023/01/25 10:06:39;;;;;;;14.80;10.43;;;;;;;3.64;100.00;100806.31;6158619;23;20217;-79
2023/01/25 10:09:19;;;;;;;14.33;10.00;;;;;;;3.65;100.00;100807.94;6185527;23;20530;-78
2023/01/25 10:11:46;;;;;;;13.13;10.23;;;;;;;3.52;100.00;100793.22;6159756;23;20213;-78
2023/01/25 10:14:15;;;;;;;14.90;10.53;;;;;;;3.71;100.00;100799.41;6158926;23;20206;-78
2023/01/25 10:17:07;;;;;;;16.37;10.77;;;;;;;3.60;100.00;100792.50;6159426;23;20614;-79
2023/01/25 10:19:53;;;;;;;14.73;11.00;;;;;;;3.72;100.00;100790.50;6159528;23;20266;-79
2023/01/25 10:22:26;;;;;;;14.17;11.00;;;;;;;3.84;100.00;100786.66;6185007;23;20216;-78
2023/01/25 10:25:15;;;;;;;13.17;9.83;;;;;;;3.86;100.00;100787.34;6184264;23;20232;-79
2023/01/25 10:28:00;;;;;;;14.27;10.57;;;;;;;3.74;100.00;100776.09;6158863;23;20217;-78
2023/01/25 10:30:43;;;;;;;15.27;10.87;;;;;;;3.81;100.00;100774.53;6158112;23;20208;-79
2023/01/25 10:33:12;;;;;;;16.90;11.47;;;;;;;3.56;100.00;100767.25;6159585;23;20193;-79
2023/01/25 10:35:43;;;;;;;13.53;10.57;;;;;;;3.38;100.00;100766.38;6159177;23;20217;-80
2023/01/25 10:38:35;;;;;;;15.10;10.83;;;;;;;3.44;100.00;100765.81;6183279;23;20209;-78
2023/01/25 10:41:19;;;;;;;15.03;11.20;;;;;;;3.43;100.00;100759.66;6162029;23;20264;-79
2023/01/25 10:43:46;;;;;;;14.53;11.27;;;;;;;3.55;100.00;100766.44;6137731;23;20293;-80
2023/01/25 10:46:19;;;;;;;16.93;11.90;;;;;;;3.63;100.00;100759.56;6136809;23;20205;-79
2023/01/25 10:48:46;;;;;;;15.77;11.30;;;;;;;3.74;100.00;100759.34;6136214;23;20557;-80
2023/01/25 10:51:34;;;;;;;15.00;11.00;;;;;;;3.52;100.00;100740.22;6186781;23;20643;-79
2023/01/25 10:54:05;;;;;;;13.10;10.80;;;;;;;3.78;100.00;100743.00;6137161;23;20761;-78
2023/01/25 10:56:33;;;;;;;15.10;11.10;;;;;;;3.72;100.00;100743.63;6161192;23;20205;-79
2023/01/25 10:59:19;;;;;;;14.27;11.13;;;;;;;3.69;100.00;100749.19;6188122;23;20210;-79
2023/01/25 11:01:46;;;;;;;12.90;10.17;;;;;;;3.75;100.00;100742.47;6160996;23;20659;-79
2023/01/25 11:04:28;;;;;;;15.77;10.57;;;;;;;3.52;100.00;100729.63;6162457;23;20210;-80
2023/01/25 11:06:55;;;;;;;14.13;11.40;;;;;;;3.35;100.00;100741.03;6161097;23;20206;-79
2023/01/25 11:09:21;;;;;;;14.60;11.07;;;;;;;3.36;100.00;100737.38;6190802;23;20201;-80
2023/01/25 11:11:55;;;;;;;12.97;10.30;;;;;;;3.33;100.00;100727.06;6192082;23;20210;-79
2023/01/25 11:14:25;;;;;;;13.77;10.50;;;;;;;3.25;100.00;100726.97;6184694;23;20202;-79
2023/01/25 11:16:53;;;;;;;14.53;10.83;;;;;;;3.32;100.00;100730.69;6160574;23;20213;-79
2023/01/25 11:19:25;;;;;;;16.63;11.63;;;;;;;3.34;100.00;100715.50;6159225;23;20206;-79
2023/01/25 11:21:56;;;;;;;13.40;11.13;;;;;;;3.45;100.00;100712.66;6185312;23;20666;-79
2023/01/25 11:24:34;;;;;;;15.40;10.90;;;;;;;3.54;100.00;100717.09;6159021;23;20635;-79
2023/01/25 11:27:33;;;;;;;13.93;10.43;;;;;;;3.48;100.00;100714.19;6159437;23;20225;-79
2023/01/25 11:30:15;;;;;;;14.37;10.63;;;;;;;3.48;100.00;100707.06;6120747;23;20210;-79
2023/01/25 11:32:42;;;;;;;15.30;10.77;;;;;;;3.47;100.00;100705.41;6164180;23;20209;-78
2023/01/25 11:35:17;;;;;;;13.80;10.87;;;;;;;3.47;100.00;100699.25;6189043;23;20555;-79